Fort Albany, Canada
Current Conditions -  °F | °C
As of 11:00 PM on Tuesday 27 Jan 2015 (Local Time) from CYMO Reporting Station
Clear Clear  
Wind Chill: -10°   Ceiling: Unl
Heat Index:   Visibility: 9mi
Dew Point: -2°   Wind: 10mph
Humidity: 72%   Direction: 200°SSW
Pressure: 30.16"   Gusts: NA
Location:  52.25°N, 81.62°W
Report Text: CYMO 280400Z AUTO 20009KT 9SM CLR M15/M19 A3016 RMK SLP214
Loading
Personal Weather Stations






























Interactive Weather Map New forecast layout! Learn more

10-Day Weather Forecast

Advertisements
Track Severe Weather on mobile